Aérodrome :
LOGIN :

S'inscrire | Disclaimer

   EN    FR    IT 

 










Légende :    VFR   VFR Marginal   IFR   IFR Intensif   IFR Très Intensif
Visi : 
Plafond : 
>= 8 km
>= 3000ft
5 à 8 km
1000 à 3000 ft
1500m à 5 km
500 à 1000 ft
800 à 1500m
200 à 500 ft
< 800m
< 200 ft
Symboles :   Orages  Brouillard  Fortes neiges  Fortes précipitations  Vent > 20 kt
SIGMETs :   Divers  Orages  Givrage  Turbulence  Onde Orograph.  Cendres Volcan.







- Altitude de l'aérodrome : 1416 ft
- Code IATA : ZRH


LSZH - Zurich

DERNIER METAR :
  • 131550Z 12003KT 9999 -SHRA FEW012 SCT090 10/09 Q1031 NOSIG

METARs EXPIRÉS :
  • 131520Z 13002KT 9999 -SHRA FEW010 SCT050 BKN075 10/09 Q1031 NOSIG
  • 131450Z 25002KT 9999 -SHRA FEW012 SCT055 BKN070 10/09 Q1031 NOSIG
  • 131420Z VRB01KT 9999 -RA FEW018 SCT060 BKN070 11/09 Q1031 NOSIG
  • 131350Z 15004KT 9999 -RA BKN060 BKN065 11/09 Q1030 NOSIG
  • 131320Z 18005KT 9999 -RA SCT056 BKN062 11/09 Q1030 NOSIG

TAF TAF LSZH
Valide du 13 à 15h jusqu'au 14 à 21h UTC


131425Z 1315/1421 20005KT 9999 SCT060 BKN065 TX11/1315Z TN05/1406Z TX10/1414Z
TEMPO 1315/1317 RA
PROB30
TEMPO 1315/1317 4500 DZ
BECMG 1319/1322 2500 BCFG SCT002
BECMG 1322/1401 0200 FG VV001
BECMG 1407/1410 3500 BR BKN008
PROB40 1410/1416 04005KT
PROB40 1412/1419 7000 BKN012
ATIS : +41 43 816 2295 (DEP) +41 43 816 2294 (ARR)
Pas de NOTAMs connus pour ce terrain.



MET'MAP, la Météo Aéronautique d'un coup d'oeil ! - Copyright ORBIFLY Décembre 2007 - Disclaimer

ORBIFLY MET'MAP TEAM :

Programmation & Développement : Alexandra Zaïnal
Conception & Développement : Baudouin d'Aumeries
Co-Programmation & Développement : Marc-Olivier Méhu
Soutien technique & logistique : Manuel Goepfert

Contact : metmap@orbifly.com




SOURCES & CREDITS :

   NOAA